Latest Weather Observations for Portland Airport

IDV60801

Issued at 6:35 am EDT Saturday 1 November 2014 (issued every 30 minutes, with the page automatically refreshed every 10 minutes)

About weather observations | Map of weather stations | Latest weather observations for VIC | Other Formats
Station Details ID: 090171 Name: CASHMORE AIRPORT Lat: -38.31 Lon: 141.47 Height: 80.9 m
Data from the previous 72 hours. | See also: Recent months at Portland Airport
Date/Time
EDT
Temp
°C
App
Temp
°C
Dew
Point
Rel
Hum
%
Delta-T
°C
Wind Press
QNH
hPa
Press
MSL
hPa
Rain
since 9 am
mm
Dir
 
Spd
km/h
Gust
km/h
Spd
kts
Gust
kts
01/06:30am 11.0 4.5 6.4 73 2.2 WSW 30 39 16 21 1003.6 1003.6 4.2
01/06:00am 10.7 4.0 5.7 71 2.3 W 30 43 16 23 1003.3 1003.3 4.2
01/05:32am 11.1 4.7 6.8 75 2.0 WSW 30 50 16 27 1002.8 1002.8 4.2
01/05:30am 11.0 4.6 6.9 76 2.0 WSW 30 44 16 24 1002.9 1002.9 4.2
01/05:00am 11.0 4.5 8.0 82 1.5 WSW 32 56 17 30 1002.2 1002.2 4.2
01/04:37am 10.8 5.8 9.4 91 0.7 WSW 26 44 14 24 1001.8 1001.8 4.2
01/04:30am 10.5 5.4 9.3 92 0.6 WSW 26 39 14 21 1001.8 1001.8 4.2
01/04:16am 10.7 4.0 9.6 93 0.6 WSW 35 59 19 32 1001.8 1001.8 4.0
01/04:00am 11.1 5.1 10.0 93 0.6 WSW 32 54 17 29 1001.3 1001.3 3.8
01/03:59am 11.1 5.0 9.9 92 0.6 WSW 32 54 17 29 1001.4 1001.4 3.8
01/03:55am 11.2 5.5 9.8 91 0.7 WSW 30 54 16 29 1001.3 1001.3 3.8
01/03:34am 11.9 6.0 10.5 91 0.7 WSW 32 59 17 32 1000.9 1000.9 3.8
01/03:30am 12.1 7.0 10.7 91 0.7 WSW 28 46 15 25 1000.7 1000.6 3.6
01/03:27am 12.2 7.2 10.9 92 0.7 WSW 28 46 15 25 1000.7 1000.6 3.6
01/03:17am 12.3 7.0 11.4 94 0.5 W 30 39 16 21 1000.6 1000.5 3.6
01/03:00am 12.4 6.8 11.6 95 0.4 W 32 48 17 26 1000.4 1000.3 3.6
01/02:56am 12.5 7.4 11.9 96 0.3 W 30 48 16 26 1000.3 1000.2 3.6
01/02:41am 12.2 5.7 11.6 96 0.3 WSW 37 43 20 23 1000.3 1000.2 3.2
01/02:34am 12.6 7.9 12.0 96 0.3 WNW 28 54 15 29 1000.2 1000.1 2.4
01/02:30am 12.5 8.5 11.9 96 0.3 WNW 24 35 13 19 1000.3 1000.2 2.4
01/02:14am 12.6 8.2 11.8 95 0.4 WNW 26 39 14 21 1000.6 1000.5 2.2
01/02:00am 12.6 7.8 11.8 95 0.4 WNW 28 39 15 21 1000.7 1000.6 2.2
01/01:52am 12.6 7.8 11.8 95 0.4 WNW 28 37 15 20 1000.5 1000.4 2.2
01/01:32am 12.6 7.4 11.7 94 0.5 WNW 30 41 16 22 1000.8 1000.7 2.0
01/01:30am 12.6 7.1 11.7 94 0.5 WNW 32 41 17 22 1000.9 1000.9 2.0
01/01:00am 12.6 8.6 11.8 95 0.4 WNW 24 37 13 20 1000.9 1000.9 2.0
01/12:56am 12.7 9.1 11.9 95 0.4 WNW 22 32 12 17 1000.7 1000.6 2.0
01/12:30am 12.6 9.9 11.7 94 0.5 WNW 17 22 9 12 1000.5 1000.4 2.0
01/12:00am 12.9 10.2 11.8 93 0.6 WNW 17 24 9 13 1000.7 1000.6 1.2
 
Date/Time
EDT
Temp
°C
App
Temp
°C
Dew
Point
Rel
Hum
%
Delta-T
°C
Wind Press
QNH
hPa
Press
MSL
hPa
Rain
since 9 am
mm
Dir
 
Spd
km/h
Gust
km/h
Spd
kts
Gust
kts
31/11:30pm 13.0 8.6 11.6 91 0.7 W 26 37 14 20 1001.6 1001.6 0.6
31/11:00pm 13.7 10.0 11.6 87 1.1 WNW 22 32 12 17 1002.5 1002.5 0.2
31/10:30pm 13.5 7.9 11.4 87 1.1 W 32 41 17 22 1001.1 1001.1 0.2
31/10:03pm 13.4 7.6 11.5 88 1.0 W 33 43 18 23 1000.1 1000.0 0.2
31/10:00pm 13.3 7.5 11.5 89 1.0 W 33 43 18 23 1000.1 1000.0 0.2
31/09:30pm 14.4 8.2 12.8 90 0.9 W 37 52 20 28 1001.2 1001.2 0.2
31/09:00pm 14.5 9.3 12.7 89 1.0 W 32 46 17 25 1000.5 1000.4 0.2
31/08:30pm 14.9 8.9 13.3 90 0.9 W 37 50 20 27 1000.0 999.9 0.2
31/08:00pm 15.3 9.4 13.5 89 1.0 W 37 52 20 28 999.4 999.4 0.2
31/07:45pm 15.4 10.4 13.4 88 1.1 W 32 43 17 23 998.9 998.9 0.2
31/07:30pm 15.7 9.3 13.2 85 1.4 W 39 50 21 27 998.4 998.4 0.2
31/07:00pm 17.0 11.1 12.3 74 2.6 W 35 44 19 24 998.1 998.1 0.2
31/06:30pm 18.0 11.4 11.3 65 3.7 W 37 50 20 27 997.8 997.8 0.2
31/06:00pm 19.9 13.1 10.6 55 5.1 W 37 52 20 28 997.9 997.9 0.2
31/05:43pm 21.2 14.5 9.8 48 6.2 W 35 54 19 29 997.9 997.9 0.2
31/05:30pm 22.4 15.0 9.9 45 6.8 W 39 52 21 28 997.9 997.9 0.2
31/05:12pm 23.1 14.5 8.0 38 8.0 W 43 65 23 35 997.6 997.6 0.2
31/05:00pm 23.8 16.7 8.2 37 8.4 W 35 52 19 28 997.7 997.7 0.2
31/04:37pm 24.2 15.9 7.8 35 8.7 W 41 59 22 32 997.9 997.9 0.2
31/04:30pm 25.8 17.1 7.9 32 9.6 W 43 59 23 32 997.7 997.7 0.2
31/04:24pm 26.2 16.9 7.7 31 9.9 W 46 56 25 30 997.8 997.8 0.2
31/04:00pm 29.8 22.8 5.8 22 12.8 NNW 32 54 17 29 997.9 997.9 0.2
31/03:57pm 29.3 21.7 4.0 20 12.9 NNW 33 54 18 29 997.9 997.9 0.2
31/03:30pm 28.6 21.7 4.8 22 12.3 NNW 30 46 16 25 998.6 998.6 0.2
31/03:00pm 29.4 22.1 5.5 22 12.6 NNW 33 48 18 26 999.0 999.0 0.2
31/02:34pm 29.7 21.8 4.4 20 13.0 N 35 54 19 29 999.6 999.5 0.2
31/02:30pm 29.7 22.1 5.7 22 12.7 NNW 35 52 19 28 999.7 999.6 0.2
31/02:02pm 29.4 23.5 7.3 25 12.0 N 28 46 15 25 1000.2 1000.1 0.2
31/02:00pm 29.4 24.4 9.5 29 11.2 N 26 43 14 23 1000.2 1000.1 0.2
31/01:30pm 27.7 21.2 8.1 29 10.6 NNW 32 46 17 25 1000.9 1000.9 0.2
31/01:05pm 27.5 21.7 7.9 29 10.6 N 28 46 15 25 1000.9 1000.9 0.2
31/01:00pm 27.1 20.9 8.0 30 10.4 N 30 44 16 24 1001.0 1001.0 0.2
31/12:30pm 26.0 19.7 8.9 34 9.3 N 32 52 17 28 1001.5 1001.5 0.2
31/12:04pm 26.1 19.6 9.0 34 9.4 N 33 52 18 28 1002.0 1002.0 0.2
31/12:00pm 26.3 20.2 9.6 35 9.3 N 32 48 17 26 1002.1 1002.1 0.2
31/11:55am 26.2 20.6 10.0 36 9.0 N 30 48 16 26 1002.1 1002.1 0.2
31/11:30am 25.2 20.1 10.6 40 8.2 N 28 43 15 23 1002.6 1002.6 0.2
31/11:00am 23.2 18.8 10.3 44 7.1 N 24 39 13 21 1003.2 1003.2 0.0
31/10:30am 21.2 16.1 9.1 46 6.5 N 26 37 14 20 1003.9 1003.9 0.0
31/10:00am 20.1 15.9 9.9 52 5.5 N 22 32 12 17 1004.3 1004.3 0.0
31/09:30am 17.4 14.4 10.5 64 3.7 N 17 24 9 13 1004.9 1004.9 0.0
31/09:00am 14.0 10.3 9.6 75 2.3 N 19 24 10 13 1005.3 1005.3 0.0
31/08:30am 12.6 9.3 9.6 82 1.5 N 17 22 9 12 1005.7 1005.7 0.0
31/08:00am 11.1 7.8 9.4 89 0.9 N 17 22 9 12 1005.8 1005.8 0.0
31/07:30am 10.2 7.6 9.3 94 0.4 N 13 19 7 10 1006.6 1006.6 0.0
31/07:00am 9.7 7.0 8.9 95 0.4 N 13 20 7 11 1006.9 1006.9 0.0
31/06:30am 9.4 7.0 8.8 96 0.3 N 11 15 6 8 1007.4 1007.4 0.0
31/06:00am 8.9 6.4 8.3 96 0.3 NNE 11 13 6 7 1007.5 1007.5 0.0
31/05:30am 8.6 6.4 8.0 96 0.3 NNE 9 11 5 6 1007.9 1007.9 0.0
31/05:00am 8.6 6.1 8.0 96 0.3 NNE 11 15 6 8 1008.4 1008.4 0.0
31/04:30am 8.4 5.4 7.8 96 0.3 NNE 13 17 7 9 1008.7 1008.7 0.0
31/04:00am 8.0 4.9 7.4 96 0.3 NNE 13 15 7 8 1009.3 1009.3 0.0
31/03:30am 7.7 4.6 7.1 96 0.3 NNE 13 15 7 8 1009.9 1009.9 0.0
31/03:00am 7.6 4.8 7.0 96 0.3 N 11 15 6 8 1010.3 1010.3 0.0
31/02:30am 7.3 4.8 6.6 95 0.3 N 9 9 5 5 1010.7 1010.7 0.0
31/02:00am 7.9 5.5 7.1 95 0.4 NNE 9 13 5 7 1011.4 1011.5 0.0
31/01:30am 8.2 5.5 7.4 95 0.4 N 11 13 6 7 1012.1 1012.2 0.0
31/01:00am 7.7 4.9 7.0 95 0.3 N 11 13 6 7 1012.9 1012.9 0.0
31/12:30am 7.7 4.8 6.5 92 0.6 N 11 15 6 8 1012.8 1012.8 0.0
31/12:00am 8.9 5.9 7.7 92 0.6 N 13 15 7 8 1012.9 1012.9 0.0
 
Date/Time
EDT
Temp
°C
App
Temp
°C
Dew
Point
Rel
Hum
%
Delta-T
°C
Wind Press
QNH
hPa
Press
MSL
hPa
Rain
since 9 am
mm
Dir
 
Spd
km/h
Gust
km/h
Spd
kts
Gust
kts
30/11:30pm 8.8 6.5 7.4 91 0.7 W 9 11 5 6 1013.2 1013.2 0.0
30/11:00pm 9.2 7.9 7.5 89 0.8 WSW 4 7 2 4 1013.7 1013.7 0.0
30/10:30pm 8.8 6.0 6.9 88 0.9 WSW 11 13 6 7 1014.1 1014.1 0.0
30/10:00pm 9.6 6.6 7.5 87 1.0 WSW 13 15 7 8 1014.3 1014.3 0.0
30/09:30pm 9.3 6.5 7.1 86 1.0 WSW 11 13 6 7 1013.9 1013.9 0.0
30/09:00pm 10.0 7.4 7.6 85 1.2 W 11 13 6 7 1013.8 1013.8 0.0
30/08:30pm 10.8 7.8 7.9 82 1.4 W 13 17 7 9 1013.7 1013.7 0.0
30/08:00pm 12.4 9.2 8.5 77 1.9 WSW 15 22 8 12 1013.4 1013.4 0.0
30/07:30pm 13.7 10.3 9.0 73 2.4 WSW 17 22 9 12 1013.5 1013.5 0.0
30/07:00pm 14.5 10.8 9.3 71 2.7 W 19 22 10 12 1013.3 1013.3 0.0
30/06:30pm 15.0 11.5 10.2 73 2.5 W 19 28 10 15 1013.3 1013.3 0.0
30/06:00pm 15.2 11.0 9.8 70 2.8 W 22 30 12 16 1013.4 1013.4 0.0
30/05:30pm 15.4 11.4 10.4 72 2.6 W 22 30 12 16 1013.5 1013.5 0.0
30/05:00pm 15.8 12.3 11.0 73 2.6 W 20 33 11 18 1013.7 1013.7 0.0
30/04:30pm 15.3 10.8 9.9 70 2.8 W 24 33 13 18 1013.8 1013.8 0.0
30/04:00pm 15.5 11.1 10.3 71 2.7 W 24 33 13 18 1014.1 1014.1 0.0
30/03:30pm 16.2 11.8 10.5 69 3.0 W 24 35 13 19 1014.2 1014.2 0.0
30/03:00pm 16.1 11.3 10.4 69 3.0 W 26 37 14 20 1014.4 1014.4 0.0
30/02:30pm 16.3 12.3 10.4 68 3.1 W 22 30 12 16 1014.8 1014.8 0.0
30/02:00pm 16.6 11.5 10.5 67 3.2 W 28 39 15 21 1014.9 1014.9 0.0
30/01:30pm 15.9 11.4 8.6 62 3.7 WNW 22 33 12 18 1014.8 1014.8 0.0
30/01:00pm 15.5 11.1 9.0 65 3.3 W 22 32 12 17 1015.0 1015.0 0.0
30/12:30pm 15.8 11.2 9.5 66 3.3 WNW 24 32 13 17 1015.1 1015.1 0.0
30/12:00pm 14.7 9.9 8.9 68 3.0 W 24 35 13 19 1015.3 1015.3 0.0
30/11:30am 14.6 9.4 9.0 69 2.9 WNW 26 35 14 19 1015.6 1015.6 0.0
30/11:00am 14.8 10.0 9.0 68 3.0 W 24 35 13 19 1015.6 1015.6 0.0
30/10:30am 14.3 9.9 8.9 70 2.7 W 22 30 12 16 1015.5 1015.5 0.0
30/10:00am 14.5 10.6 9.5 72 2.6 W 20 30 11 16 1015.7 1015.7 0.0
30/09:30am 13.5 10.7 11.2 86 1.2 W 17 22 9 12 1015.7 1015.7 0.0
30/09:00am 12.8 9.4 10.7 87 1.1 W 19 24 10 13 1015.9 1015.9 0.0
30/08:52am 12.3 8.7 10.5 89 0.9 W 20 28 11 15 1016.0 1016.0 0.0
30/08:41am 12.7 9.0 11.6 93 0.6 W 22 30 12 16 1015.9 1015.9 0.0
30/08:30am 12.3 8.5 11.2 93 0.6 W 22 28 12 15 1015.8 1015.8 0.0
30/08:14am 12.2 9.9 10.4 89 0.9 NW 13 22 7 12 1015.6 1015.6 0.0
30/08:00am 12.2 10.6 10.1 87 1.1 NW 9 13 5 7 1015.3 1015.3 0.0
30/07:30am 12.5 10.5 10.0 85 1.3 NW 11 15 6 8 1014.8 1014.8 0.0
30/07:00am 12.8 10.3 9.8 82 1.5 W 13 19 7 10 1014.6 1014.6 0.0
30/06:30am 13.0 9.8 10.0 82 1.5 W 17 26 9 14 1014.7 1014.7 0.0
30/06:00am 13.0 10.2 8.7 75 2.2 W 13 20 7 11 1014.4 1014.4 0.0
30/05:30am 13.0 10.0 7.7 70 2.6 WNW 13 19 7 10 1014.0 1014.0 0.0
30/05:00am 13.0 9.8 8.3 73 2.3 W 15 22 8 12 1014.4 1014.4 0.0
30/04:30am 12.8 9.9 8.1 73 2.3 W 13 17 7 9 1014.2 1014.2 0.0
30/04:00am 13.0 8.7 7.2 68 2.8 WSW 19 28 10 15 1014.6 1014.6 0.0
30/03:30am 13.1 9.0 8.0 71 2.5 W 19 30 10 16 1014.7 1014.7 0.0
30/03:00am 13.0 7.0 7.2 68 2.8 W 28 35 15 19 1014.7 1014.7 0.0
30/02:30am 12.9 8.6 7.8 71 2.5 W 20 32 11 17 1014.7 1014.7 0.0
30/02:00am 13.0 8.4 8.1 72 2.4 W 22 32 12 17 1015.0 1015.0 0.0
30/01:30am 12.7 8.7 8.4 75 2.1 W 19 24 10 13 1015.1 1015.1 0.0
30/01:00am 12.6 9.7 9.6 82 1.5 W 15 22 8 12 1015.5 1015.5 0.0
30/12:30am 12.1 9.4 9.1 82 1.5 W 13 15 7 8 1015.8 1015.8 0.0
30/12:00am 12.2 9.1 8.9 80 1.7 W 15 22 8 12 1016.1 1016.1 0.0
 
Date/Time
EDT
Temp
°C
App
Temp
°C
Dew
Point
Rel
Hum
%
Delta-T
°C
Wind Press
QNH
hPa
Press
MSL
hPa
Rain
since 9 am
mm
Dir
 
Spd
km/h
Gust
km/h
Spd
kts
Gust
kts
29/11:30pm 12.6 9.4 10.0 84 1.3 WSW 17 22 9 12 1016.4 1016.4 0.0
29/11:00pm 13.1 9.6 10.8 86 1.2 W 20 28 11 15 1016.6 1016.6 0.0
29/10:30pm 12.9 10.1 9.9 82 1.5 W 15 20 8 11 1016.8 1016.8 0.0
29/10:00pm 13.3 9.9 10.5 83 1.5 W 19 28 10 15 1016.7 1016.7 0.0
29/09:30pm 12.8 10.1 10.3 85 1.3 WNW 15 19 8 10 1016.7 1016.7 0.0
29/09:00pm 12.6 9.4 10.0 84 1.3 WNW 17 20 9 11 1016.7 1016.7 0.0
29/08:30pm 12.6 7.7 10.0 84 1.3 W 26 37 14 20 1016.7 1016.7 0.0
29/08:00pm 13.0 9.6 10.7 86 1.2 W 19 26 10 14 1016.6 1016.6 0.0
29/07:30pm 13.3 9.0 10.8 85 1.3 W 24 39 13 21 1016.6 1016.6 0.0
29/07:00pm 13.2 8.6 10.9 86 1.2 W 26 35 14 19 1016.3 1016.3 0.0
29/06:56pm 13.2 8.6 11.1 87 1.1 W 26 35 14 19 1016.3 1016.3 0.0
29/06:33pm 13.4 8.6 11.5 88 1.0 W 28 41 15 22 1016.2 1016.2 0.0
29/06:30pm 13.5 8.7 11.7 89 1.0 W 28 39 15 21 1016.2 1016.2 0.0
29/06:00pm 14.3 8.4 10.5 78 2.0 W 32 41 17 22 1016.3 1016.3 0.0
29/05:30pm 15.4 9.2 11.4 77 2.2 W 35 48 19 26 1016.0 1016.0 0.0
29/05:00pm 15.8 9.9 11.0 73 2.6 W 33 46 18 25 1016.0 1016.0 0.0
29/04:45pm 15.4 9.1 11.0 75 2.4 W 35 54 19 29 1016.0 1016.0 0.0
29/04:34pm 15.3 9.4 11.1 76 2.2 W 33 44 18 24 1016.1 1016.1 0.0
29/04:30pm 15.1 9.1 10.9 76 2.2 W 33 44 18 24 1016.0 1016.0 0.0
29/04:03pm 16.0 10.7 12.4 79 2.0 W 32 46 17 25 1016.1 1016.1 0.0
29/04:00pm 15.4 9.8 12.0 80 1.9 W 33 46 18 25 1016.1 1016.1 0.0
29/03:30pm 16.2 10.7 12.4 78 2.1 W 33 46 18 25 1016.2 1016.2 0.0
29/03:00pm 15.2 8.8 10.8 75 2.3 W 35 48 19 26 1016.4 1016.4 0.0
29/02:30pm 15.6 10.0 11.4 76 2.3 W 32 43 17 23 1016.6 1016.6 0.0
29/02:00pm 16.8 12.0 11.5 71 2.9 W 28 39 15 21 1016.6 1016.6 0.0
29/01:30pm 16.4 11.1 11.1 71 2.9 W 30 39 16 21 1016.9 1016.9 0.0
29/01:00pm 15.5 10.3 10.1 70 2.8 W 28 39 15 21 1016.9 1016.9 0.0
29/12:30pm 15.8 11.0 10.3 70 2.9 WNW 26 35 14 19 1017.3 1017.3 0.0
29/12:00pm 15.6 10.6 9.5 67 3.2 WNW 26 35 14 19 1017.6 1017.6 0.0
29/11:30am 14.6 9.9 9.2 70 2.8 WNW 24 35 13 19 1017.8 1017.8 0.0
29/11:00am 14.2 9.2 9.4 73 2.5 NW 26 35 14 19 1017.9 1017.9 0.0
29/10:30am 14.1 10.2 9.5 74 2.4 WNW 20 28 11 15 1018.0 1018.0 0.0
29/10:00am 13.7 10.0 9.6 76 2.1 WNW 19 24 10 13 1018.0 1018.0 0.0
29/09:30am 13.6 9.8 8.9 73 2.4 WNW 19 28 10 15 1018.0 1018.0 0.0
29/09:00am 13.1 9.1 9.0 76 2.1 W 20 28 11 15 1018.0 1018.0 0.0
29/08:30am 13.2 9.4 8.9 75 2.2 W 19 26 10 14 1017.9 1017.9 0.0
29/08:00am 12.1 7.4 9.3 83 1.4 W 24 30 13 16 1017.9 1017.9 0.0
29/07:30am 12.7 8.5 8.2 74 2.2 W 20 28 11 15 1017.8 1017.8 0.0
29/07:00am 12.6 8.9 8.1 74 2.2 WNW 17 24 9 13 1017.7 1017.7 0.0

Other Formats:

Comma delimited format used in spreadsheet applications
http://www.bom.gov.au/fwo/IDV60801/IDV60801.94828.axf

JavaScript Object Notation format (JSON) in row-major order
http://www.bom.gov.au/fwo/IDV60801/IDV60801.94828.json